createdAt,value
2022-10-15T00:01:20.266Z,0.25
2022-10-15T00:03:47.203Z,0.35
2022-10-15T00:06:16.876Z,0.10
2022-10-15T00:08:43.819Z,0.10
2022-10-15T00:11:22.804Z,0.38
2022-10-15T00:13:50.524Z,0.50
2022-10-15T00:16:20.622Z,0.40
2022-10-15T00:18:48.097Z,0.28
2022-10-15T00:21:16.982Z,0.10
2022-10-15T00:23:44.375Z,0.20
2022-10-15T00:26:17.481Z,0.20
2022-10-15T00:28:45.080Z,0.30
2022-10-15T00:31:14.566Z,0.20
2022-10-15T00:33:41.920Z,0.20
2022-10-15T00:36:13.303Z,0.30
2022-10-15T00:38:40.250Z,0.10
2022-10-15T00:41:10.648Z,0.20
2022-10-15T00:43:45.845Z,0.20
2022-10-15T00:46:33.545Z,0.20
2022-10-15T00:51:41.248Z,0.20
2022-10-15T00:54:09.753Z,0.20
2022-10-15T00:56:37.782Z,0.25
2022-10-15T00:59:07.206Z,0.08
2022-10-15T01:01:35.087Z,0.05
2022-10-15T01:04:03.825Z,0.22
2022-10-15T01:06:30.585Z,0.10
2022-10-15T01:08:57.868Z,0.10
2022-10-15T01:11:37.035Z,0.10
2022-10-15T01:14:36.434Z,0.25
2022-10-15T01:17:17.689Z,0.20
2022-10-15T01:20:03.142Z,0.17
2022-10-15T01:23:05.435Z,0.10
2022-10-15T01:26:00.085Z,0.10
2022-10-15T01:28:43.396Z,0.17
2022-10-15T01:31:42.053Z,0.10
2022-10-15T01:37:15.754Z,0.20
2022-10-15T01:39:49.561Z,0.15
2022-10-15T01:42:29.833Z,0.20
2022-10-15T01:45:05.859Z,0.20
2022-10-15T01:47:54.607Z,0.00
2022-10-15T01:50:26.510Z,0.40
2022-10-15T01:52:56.104Z,0.10
2022-10-15T01:55:26.135Z,0.20
2022-10-15T01:57:56.589Z,0.03
2022-10-15T02:00:24.845Z,0.20
2022-10-15T02:02:51.630Z,0.20
2022-10-15T02:05:28.315Z,0.10
2022-10-15T02:08:16.611Z,0.10
2022-10-15T02:10:48.615Z,0.00
2022-10-15T02:13:32.493Z,0.05
2022-10-15T02:16:22.242Z,0.20
2022-10-15T02:19:06.617Z,0.00
2022-10-15T02:21:44.123Z,0.43
2022-10-15T02:24:21.853Z,0.17
2022-10-15T02:26:52.284Z,0.20
2022-10-15T02:29:23.267Z,0.20
2022-10-15T02:31:51.166Z,0.20
2022-10-15T02:34:21.154Z,0.10
2022-10-15T02:36:48.955Z,0.20
2022-10-15T02:39:21.040Z,0.20
2022-10-15T02:41:49.032Z,0.10
2022-10-15T02:44:15.835Z,0.00
2022-10-15T02:46:42.661Z,0.05
2022-10-15T02:49:10.864Z,0.10
2022-10-15T02:51:37.758Z,0.10
2022-10-15T02:54:06.028Z,0.30
2022-10-15T02:56:34.204Z,0.10
2022-10-15T02:59:01.997Z,0.15
2022-10-15T03:01:29.213Z,0.10
2022-10-15T03:03:56.023Z,0.10
2022-10-15T03:06:22.799Z,0.03
2022-10-15T03:08:49.692Z,0.10
2022-10-15T03:11:17.021Z,0.05
2022-10-15T03:13:43.798Z,0.10
2022-10-15T03:16:12.498Z,0.20
2022-10-15T03:18:41.816Z,0.10
2022-10-15T03:21:10.727Z,0.05
2022-10-15T03:23:39.104Z,0.03
2022-10-15T03:26:11.575Z,0.10
2022-10-15T03:28:38.574Z,0.10
2022-10-15T03:31:06.251Z,0.00
2022-10-15T03:33:32.979Z,0.22
2022-10-15T03:36:01.419Z,0.10
2022-10-15T03:38:28.266Z,0.03
2022-10-15T03:40:55.169Z,0.05
2022-10-15T03:43:42.879Z,0.10
2022-10-15T03:46:10.862Z,0.10
2022-10-15T03:48:42.158Z,0.00
2022-10-15T03:51:11.551Z,0.10
2022-10-15T03:53:40.142Z,0.10
2022-10-15T03:56:07.225Z,0.00
2022-10-15T03:58:37.898Z,0.00
2022-10-15T04:01:14.665Z,0.00
2022-10-15T04:03:42.156Z,0.10
2022-10-15T04:06:09.925Z,0.10
2022-10-15T04:08:38.039Z,0.17
2022-10-15T04:11:19.167Z,0.00
2022-10-15T04:13:50.465Z,0.00
2022-10-15T04:16:18.151Z,0.00
2022-10-15T04:18:44.977Z,0.00
2022-10-15T04:21:12.045Z,0.10
2022-10-15T04:23:41.248Z,0.10
2022-10-15T04:26:37.324Z,0.00
2022-10-15T04:29:04.709Z,0.00
2022-10-15T04:31:32.091Z,0.30
2022-10-15T04:33:59.416Z,0.00
2022-10-15T04:36:27.083Z,0.00
2022-10-15T04:39:01.758Z,0.10
2022-10-15T04:41:41.114Z,0.00
2022-10-15T04:44:11.908Z,0.00
2022-10-15T04:46:39.609Z,0.00
2022-10-15T04:49:32.414Z,0.05
2022-10-15T04:52:01.354Z,0.10
2022-10-15T04:54:30.769Z,0.10
2022-10-15T04:57:04.896Z,0.10
2022-10-15T04:59:32.881Z,0.10
2022-10-15T05:02:25.899Z,0.10
2022-10-15T05:04:58.026Z,0.00
2022-10-15T05:07:25.401Z,0.20
2022-10-15T05:09:53.949Z,0.00
2022-10-15T05:12:21.214Z,0.00
2022-10-15T05:14:48.037Z,0.13
2022-10-15T05:17:21.133Z,0.00
2022-10-15T05:19:48.394Z,0.20
2022-10-15T05:22:19.872Z,0.00
2022-10-15T05:24:51.906Z,0.10
2022-10-15T05:27:30.412Z,0.00
2022-10-15T05:29:57.223Z,0.10
2022-10-15T05:32:31.230Z,0.20
2022-10-15T05:34:58.513Z,0.10
2022-10-15T05:37:34.497Z,0.22
2022-10-15T05:40:01.372Z,0.20
2022-10-15T05:42:28.166Z,0.10
2022-10-15T05:44:58.243Z,0.20
2022-10-15T05:47:25.353Z,0.17
2022-10-15T05:50:11.755Z,0.10
2022-10-15T05:52:43.090Z,0.10
2022-10-15T05:55:18.666Z,0.20
2022-10-15T05:57:45.408Z,0.20
2022-10-15T06:00:12.854Z,0.10
2022-10-15T06:02:39.825Z,0.20
2022-10-15T06:05:07.050Z,0.20
2022-10-15T06:07:33.906Z,0.20
2022-10-15T06:10:05.584Z,0.10
2022-10-15T06:12:34.214Z,0.32
2022-10-15T06:15:01.106Z,0.20
2022-10-15T06:17:27.835Z,0.10
2022-10-15T06:19:54.590Z,0.40
2022-10-15T06:22:21.488Z,0.10
2022-10-15T06:24:48.321Z,0.35
2022-10-15T06:27:15.168Z,0.20
2022-10-15T06:29:41.919Z,0.20
2022-10-15T06:32:12.023Z,0.30
2022-10-15T06:34:43.678Z,0.20
2022-10-15T06:37:10.886Z,0.40
2022-10-15T06:39:37.633Z,0.28
2022-10-15T06:42:04.378Z,0.30
2022-10-15T06:44:39.156Z,0.30
2022-10-15T06:47:06.097Z,0.17
2022-10-15T06:49:32.853Z,0.30
2022-10-15T06:52:03.407Z,0.30
2022-10-15T06:54:30.496Z,0.40
2022-10-15T06:56:57.338Z,0.20
2022-10-15T06:59:24.140Z,0.35
2022-10-15T07:01:50.832Z,0.20
2022-10-15T07:04:17.535Z,0.30
2022-10-15T07:06:44.288Z,0.63
2022-10-15T07:09:11.076Z,0.80
2022-10-15T07:11:37.804Z,0.40
2022-10-15T07:14:04.558Z,0.20
2022-10-15T07:16:31.292Z,0.80
2022-10-15T07:18:58.071Z,1.30
2022-10-15T07:21:24.777Z,0.77
2022-10-15T07:23:51.609Z,0.40
2022-10-15T07:26:18.353Z,0.20
2022-10-15T07:28:45.249Z,0.45
2022-10-15T07:31:12.047Z,0.50
2022-10-15T07:33:39.045Z,0.40
2022-10-15T07:36:08.556Z,0.50
2022-10-15T07:38:35.829Z,0.30
2022-10-15T07:41:04.331Z,0.40
2022-10-15T07:43:33.018Z,0.40
2022-10-15T07:46:00.085Z,0.30
2022-10-15T07:48:26.963Z,0.40
2022-10-15T07:50:57.395Z,0.20
2022-10-15T07:53:24.842Z,0.25
2022-10-15T07:56:03.068Z,0.30
2022-10-15T07:58:38.089Z,0.30
2022-10-15T08:01:10.116Z,0.22
2022-10-15T08:03:37.628Z,0.10
2022-10-15T08:06:06.990Z,0.10
2022-10-15T08:08:34.822Z,0.20
2022-10-15T08:11:06.357Z,0.13
2022-10-15T08:13:33.401Z,0.20
2022-10-15T08:16:00.535Z,0.20
2022-10-15T08:18:27.654Z,0.20
2022-10-15T08:20:54.463Z,0.15
2022-10-15T08:23:21.308Z,0.20
2022-10-15T08:25:48.043Z,0.20
2022-10-15T08:28:15.299Z,0.20
2022-10-15T08:30:42.028Z,0.20
2022-10-15T08:33:12.514Z,0.28
2022-10-15T08:35:43.631Z,0.20
2022-10-15T08:38:14.737Z,0.10
2022-10-15T08:40:58.709Z,0.25
2022-10-15T08:43:31.495Z,0.20
2022-10-15T08:46:02.990Z,0.10
2022-10-15T08:48:38.017Z,0.10
2022-10-15T08:51:16.810Z,0.15
2022-10-15T08:54:05.120Z,0.10
2022-10-15T08:56:37.097Z,0.10
2022-10-15T08:59:36.927Z,0.10
2022-10-15T09:02:15.910Z,0.10
2022-10-15T09:04:55.211Z,0.15
2022-10-15T09:07:34.014Z,0.15
2022-10-15T09:10:30.204Z,0.38
2022-10-15T09:13:10.402Z,0.20
2022-10-15T09:15:50.416Z,0.20
2022-10-15T09:18:25.965Z,0.10
2022-10-15T09:20:54.116Z,0.20
2022-10-15T09:23:24.396Z,0.17
2022-10-15T09:26:07.330Z,0.65
2022-10-15T09:28:51.228Z,0.13
2022-10-15T09:31:27.022Z,0.15
2022-10-15T09:34:02.011Z,0.10
2022-10-15T09:36:45.851Z,0.20
2022-10-15T09:39:37.537Z,0.22
2022-10-15T09:42:18.576Z,0.10
2022-10-15T09:44:47.531Z,0.13
2022-10-15T09:47:30.670Z,0.20
2022-10-15T09:50:00.779Z,0.28
2022-10-15T09:52:52.435Z,0.20
2022-10-15T09:55:38.133Z,0.45
2022-10-15T09:58:20.554Z,0.20
2022-10-15T10:00:58.966Z,0.57
2022-10-15T10:03:37.093Z,0.25
2022-10-15T10:06:10.630Z,0.30
2022-10-15T10:08:50.759Z,0.35
2022-10-15T10:11:19.234Z,0.30
2022-10-15T10:13:50.689Z,0.52
2022-10-15T10:16:19.372Z,0.65
2022-10-15T10:19:15.072Z,0.60
2022-10-15T10:21:43.536Z,0.50
2022-10-15T10:24:31.782Z,0.60
2022-10-15T10:26:59.700Z,0.30
2022-10-15T10:29:33.962Z,0.60
2022-10-15T10:32:18.864Z,0.50
2022-10-15T10:34:51.488Z,0.52
2022-10-15T10:37:19.807Z,0.50
2022-10-15T10:39:52.761Z,0.40
2022-10-15T10:42:22.457Z,0.30
2022-10-15T10:44:49.430Z,0.70
2022-10-15T10:47:22.296Z,0.40
2022-10-15T10:49:56.047Z,0.60
2022-10-15T10:52:36.478Z,0.70
2022-10-15T10:55:19.395Z,0.40
2022-10-15T10:58:02.239Z,0.60
2022-10-15T11:00:46.714Z,0.63
2022-10-15T11:03:31.230Z,0.82
2022-10-15T11:06:19.200Z,1.00
2022-10-15T11:09:23.957Z,0.60
2022-10-15T11:12:24.683Z,0.70
2022-10-15T11:15:03.321Z,0.40
2022-10-15T11:17:42.896Z,0.52
2022-10-15T11:20:59.669Z,0.40
2022-10-15T11:23:42.723Z,0.40
2022-10-15T11:26:41.461Z,0.30
2022-10-15T11:29:36.138Z,1.33
2022-10-15T11:32:15.239Z,0.52
2022-10-15T11:35:08.719Z,0.40
2022-10-15T11:37:53.958Z,0.30
2022-10-15T11:40:49.415Z,0.40
2022-10-15T11:43:36.450Z,0.65
2022-10-15T11:46:11.058Z,0.50
2022-10-15T11:49:02.723Z,0.20
2022-10-15T11:52:00.970Z,0.17
2022-10-15T11:54:38.040Z,0.80
2022-10-15T11:57:10.125Z,0.40
2022-10-15T11:59:54.719Z,0.25
2022-10-15T12:02:38.816Z,0.50
2022-10-15T12:05:14.269Z,0.38
2022-10-15T12:07:43.657Z,0.30
2022-10-15T12:10:14.001Z,0.10
2022-10-15T12:12:59.395Z,0.40
2022-10-15T12:15:41.781Z,0.20
2022-10-15T12:18:38.429Z,0.63
2022-10-15T12:21:43.280Z,0.30
2022-10-15T12:24:37.991Z,0.40
2022-10-15T12:27:19.863Z,0.60
2022-10-15T12:30:09.048Z,0.20
2022-10-15T12:32:46.450Z,0.50
2022-10-15T12:35:16.390Z,0.50
2022-10-15T12:37:46.044Z,0.40
2022-10-15T12:40:31.868Z,0.35
2022-10-15T12:43:06.526Z,0.40
2022-10-15T12:45:40.224Z,0.40
2022-10-15T12:48:16.392Z,0.40
2022-10-15T12:50:43.928Z,0.40
2022-10-15T12:53:26.004Z,0.50
2022-10-15T12:56:11.420Z,0.45
2022-10-15T12:58:46.315Z,0.40
2022-10-15T13:01:16.069Z,0.30
2022-10-15T13:03:49.059Z,0.47
2022-10-15T13:06:24.552Z,0.70
2022-10-15T13:08:58.166Z,0.30
2022-10-15T13:11:48.915Z,0.35
2022-10-15T13:14:27.251Z,0.28
2022-10-15T13:16:56.484Z,0.30
2022-10-15T13:19:28.056Z,0.38
2022-10-15T13:22:00.323Z,0.47
2022-10-15T13:24:30.949Z,0.40
2022-10-15T13:27:00.511Z,0.40
2022-10-15T13:29:28.015Z,0.40
2022-10-15T13:31:57.469Z,0.45
2022-10-15T13:34:30.540Z,0.38
2022-10-15T13:37:00.858Z,0.52
2022-10-15T13:39:38.370Z,0.40
2022-10-15T13:42:17.149Z,0.90
2022-10-15T13:44:55.550Z,0.35
2022-10-15T13:47:37.426Z,0.40
2022-10-15T13:50:24.708Z,0.38
2022-10-15T13:53:07.539Z,0.40
2022-10-15T13:55:40.087Z,0.40
2022-10-15T13:58:46.297Z,0.20
2022-10-15T14:01:22.076Z,0.20
2022-10-15T14:03:59.977Z,0.50
2022-10-15T14:06:35.116Z,0.40
2022-10-15T14:09:18.265Z,0.50
2022-10-15T14:11:45.188Z,0.35
2022-10-15T14:14:48.179Z,0.50
2022-10-15T14:17:17.742Z,0.30
2022-10-15T14:20:14.285Z,0.80
2022-10-15T14:22:40.715Z,0.52
2022-10-15T14:27:45.748Z,0.30
2022-10-15T14:30:24.828Z,0.47
2022-10-15T14:32:52.531Z,0.40
2022-10-15T14:35:35.097Z,0.40
2022-10-15T14:38:10.963Z,0.50
2022-10-15T14:40:37.859Z,0.40
2022-10-15T14:43:07.104Z,0.55
2022-10-15T14:45:50.647Z,0.50
2022-10-15T14:50:49.788Z,0.40
2022-10-15T14:53:21.877Z,0.47
2022-10-15T14:56:01.931Z,0.40
2022-10-15T14:58:29.898Z,0.40
2022-10-15T15:01:07.863Z,0.57
2022-10-15T15:03:48.187Z,0.77
2022-10-15T15:06:15.276Z,0.40
2022-10-15T15:08:42.396Z,0.50
2022-10-15T15:11:14.442Z,0.50
2022-10-15T15:13:44.528Z,0.40
2022-10-15T15:16:16.865Z,0.60
2022-10-15T15:18:46.116Z,0.90
2022-10-15T15:21:17.458Z,0.40
2022-10-15T15:23:44.692Z,0.50
2022-10-15T15:26:11.532Z,0.40
2022-10-15T15:28:38.469Z,0.30
2022-10-15T15:31:15.587Z,0.40
2022-10-15T15:33:42.344Z,0.50
2022-10-15T15:36:20.589Z,0.10
2022-10-15T15:38:49.642Z,0.73
2022-10-15T15:41:18.991Z,0.40
2022-10-15T15:43:46.486Z,0.32
2022-10-15T15:46:13.728Z,0.40
2022-10-15T15:48:40.767Z,0.70
2022-10-15T15:51:22.089Z,0.40
2022-10-15T15:53:48.854Z,0.50
2022-10-15T15:56:15.614Z,0.40
2022-10-15T15:58:42.462Z,0.30
2022-10-15T16:01:09.381Z,0.30
2022-10-15T16:03:36.207Z,0.30
2022-10-15T16:06:06.267Z,0.30
2022-10-15T16:08:33.409Z,0.50
2022-10-15T16:11:04.202Z,0.43
2022-10-15T16:13:31.378Z,0.30
2022-10-15T16:15:58.105Z,0.40
2022-10-15T16:18:24.962Z,0.40
2022-10-15T16:20:51.927Z,0.32
2022-10-15T16:23:18.753Z,0.60
2022-10-15T16:25:45.528Z,0.40
2022-10-15T16:28:12.330Z,0.60
2022-10-15T16:30:39.086Z,0.50
2022-10-15T16:35:38.608Z,0.50
2022-10-15T16:38:05.606Z,0.63
2022-10-15T16:40:32.614Z,0.65
2022-10-15T16:42:59.438Z,0.70
2022-10-15T16:45:26.300Z,0.45
2022-10-15T16:47:54.400Z,0.40
2022-10-15T16:50:21.297Z,0.60
2022-10-15T16:52:48.035Z,0.65
2022-10-15T16:55:16.610Z,1.23
2022-10-15T16:57:43.890Z,0.63
2022-10-15T17:00:11.288Z,0.68
2022-10-15T17:02:38.089Z,0.82
2022-10-15T17:05:05.226Z,0.80
2022-10-15T17:07:31.955Z,0.70
2022-10-15T17:09:58.724Z,0.80
2022-10-15T17:12:25.845Z,0.82
2022-10-15T17:14:52.892Z,1.50
2022-10-15T17:17:20.105Z,0.90
2022-10-15T17:19:47.005Z,1.40
2022-10-15T17:22:13.806Z,0.68
2022-10-15T17:24:40.593Z,0.90
2022-10-15T17:27:07.359Z,1.35
2022-10-15T17:29:34.213Z,0.70
2022-10-15T17:32:02.825Z,1.05
2022-10-15T17:34:29.746Z,0.60
2022-10-15T17:36:56.955Z,0.40
2022-10-15T17:39:24.261Z,0.50
2022-10-15T17:41:51.818Z,0.70
2022-10-15T17:44:19.134Z,0.45
2022-10-15T17:46:46.010Z,0.73
2022-10-15T17:49:17.971Z,0.65
2022-10-15T17:51:45.796Z,0.80
2022-10-15T17:54:12.766Z,0.55
2022-10-15T17:56:39.877Z,0.70
2022-10-15T17:59:08.450Z,0.52
2022-10-15T18:01:57.157Z,0.73
2022-10-15T18:04:24.915Z,0.47
2022-10-15T18:06:51.688Z,0.40
2022-10-15T18:09:24.805Z,0.60
2022-10-15T18:11:55.357Z,0.70
2022-10-15T18:14:22.205Z,0.90
2022-10-15T18:16:49.263Z,0.30
2022-10-15T18:19:16.111Z,0.60
2022-10-15T18:21:46.998Z,0.60
2022-10-15T18:24:19.139Z,0.68
2022-10-15T18:26:45.912Z,0.70
2022-10-15T18:29:12.729Z,0.50
2022-10-15T18:31:41.119Z,0.40
2022-10-15T18:34:07.901Z,0.38
2022-10-15T18:36:34.687Z,0.50
2022-10-15T18:39:01.521Z,0.60
2022-10-15T18:41:32.786Z,0.68
2022-10-15T18:44:01.689Z,0.90
2022-10-15T18:46:33.835Z,0.93
2022-10-15T18:49:01.232Z,0.80
2022-10-15T18:51:30.193Z,0.65
2022-10-15T18:53:57.015Z,0.50
2022-10-15T18:56:23.733Z,0.63
2022-10-15T18:58:52.397Z,0.60
2022-10-15T19:01:28.158Z,0.50
2022-10-15T19:03:57.068Z,1.20
2022-10-15T19:06:26.869Z,0.80
2022-10-15T19:09:00.127Z,0.52
2022-10-15T19:11:31.102Z,0.40
2022-10-15T19:13:59.215Z,0.55
2022-10-15T19:16:26.251Z,0.40
2022-10-15T19:18:53.338Z,0.32
2022-10-15T19:21:20.224Z,0.60
2022-10-15T19:23:47.212Z,0.50
2022-10-15T19:26:15.655Z,1.00
2022-10-15T19:28:42.965Z,0.95
2022-10-15T19:31:13.053Z,0.40
2022-10-15T19:33:39.858Z,0.50
2022-10-15T19:36:06.928Z,0.50
2022-10-15T19:38:33.937Z,0.88
2022-10-15T19:41:04.755Z,0.95
2022-10-15T19:43:31.531Z,0.40
2022-10-15T19:46:02.875Z,0.70
2022-10-15T19:48:30.441Z,0.55
2022-10-15T19:51:00.311Z,0.50
2022-10-15T19:53:27.252Z,0.70
2022-10-15T19:55:59.664Z,0.50
2022-10-15T19:58:26.453Z,0.40
2022-10-15T20:00:53.752Z,0.65
2022-10-15T20:03:21.708Z,0.73
2022-10-15T20:05:49.017Z,0.50
2022-10-15T20:08:16.706Z,0.55
2022-10-15T20:10:45.119Z,0.52
2022-10-15T20:13:13.266Z,0.68
2022-10-15T20:15:48.570Z,0.60
2022-10-15T20:18:16.686Z,0.77
2022-10-15T20:20:45.766Z,0.73
2022-10-15T20:23:14.982Z,0.38
2022-10-15T20:25:42.901Z,0.40
2022-10-15T20:28:11.159Z,0.47
2022-10-15T20:30:39.275Z,0.65
2022-10-15T20:33:06.987Z,0.70
2022-10-15T20:35:38.107Z,0.70
2022-10-15T20:38:05.616Z,0.50
2022-10-15T20:40:33.139Z,0.40
2022-10-15T20:43:00.058Z,0.40
2022-10-15T20:45:33.384Z,0.50
2022-10-15T20:48:00.747Z,0.70
2022-10-15T20:50:31.759Z,0.80
2022-10-15T20:52:58.866Z,1.40
2022-10-15T20:55:25.930Z,1.20
2022-10-15T20:57:52.786Z,0.70
2022-10-15T21:00:19.952Z,0.65
2022-10-15T21:02:46.938Z,0.73
2022-10-15T21:05:13.711Z,0.60
2022-10-15T21:07:40.587Z,0.40
2022-10-15T21:10:07.643Z,0.50
2022-10-15T21:12:34.475Z,0.60
2022-10-15T21:15:01.270Z,0.80
2022-10-15T21:17:28.398Z,0.70
2022-10-15T21:19:56.228Z,0.95
2022-10-15T21:22:23.400Z,0.73
2022-10-15T21:24:50.132Z,0.80
2022-10-15T21:27:19.355Z,0.63
2022-10-15T21:29:46.212Z,1.10
2022-10-15T21:32:12.996Z,1.52
2022-10-15T21:37:07.529Z,0.70
2022-10-15T21:39:34.314Z,0.90
2022-10-15T21:42:01.172Z,0.80
2022-10-15T21:44:28.002Z,1.05
2022-10-15T21:46:54.771Z,0.80
2022-10-15T21:49:21.687Z,0.77
2022-10-15T21:51:48.533Z,0.80
2022-10-15T21:54:15.314Z,0.80
2022-10-15T21:56:42.085Z,1.73
2022-10-15T21:59:09.041Z,1.30
2022-10-15T22:01:37.747Z,1.02
2022-10-15T22:04:09.815Z,0.85
2022-10-15T22:06:40.086Z,0.85
2022-10-15T22:09:08.124Z,0.90
2022-10-15T22:11:38.157Z,1.38
2022-10-15T22:14:07.476Z,2.38
2022-10-15T22:16:36.976Z,1.95
2022-10-15T22:19:05.109Z,1.50
2022-10-15T22:21:35.093Z,1.33
2022-10-15T22:24:17.152Z,0.90
2022-10-15T22:26:49.180Z,0.73
2022-10-15T22:29:31.685Z,0.80
2022-10-15T22:32:02.272Z,0.98
2022-10-15T22:34:29.126Z,1.10
2022-10-15T22:36:56.083Z,0.63
2022-10-15T22:39:22.881Z,1.13
2022-10-15T22:41:50.193Z,0.77
2022-10-15T22:44:21.322Z,0.80
2022-10-15T22:46:49.600Z,0.80
2022-10-15T22:49:19.687Z,0.70
2022-10-15T22:51:47.385Z,0.70
2022-10-15T22:54:15.810Z,0.80
2022-10-15T22:56:42.727Z,0.80
2022-10-15T23:01:41.706Z,0.77
2022-10-15T23:04:11.853Z,0.60
2022-10-15T23:06:38.944Z,1.05
2022-10-15T23:09:07.004Z,1.00
2022-10-15T23:11:40.448Z,0.77
2022-10-15T23:14:12.902Z,0.88
2022-10-15T23:16:42.419Z,0.93
2022-10-15T23:19:16.252Z,1.02
2022-10-15T23:21:57.629Z,2.22
2022-10-15T23:24:26.264Z,1.80
2022-10-15T23:26:53.510Z,1.00
2022-10-15T23:29:23.136Z,1.02
2022-10-15T23:31:51.309Z,0.90
2022-10-15T23:34:21.096Z,1.02
2022-10-15T23:36:48.374Z,1.05
2022-10-15T23:39:24.191Z,0.90
2022-10-15T23:41:51.019Z,0.95
2022-10-15T23:44:18.061Z,1.10
2022-10-15T23:46:45.189Z,1.08
2022-10-15T23:49:12.243Z,0.95
2022-10-15T23:51:39.486Z,1.20
2022-10-15T23:54:14.943Z,0.93
2022-10-15T23:56:42.169Z,1.00
2022-10-15T23:59:08.967Z,0.93
